Terminal Aerodrome Forecast
Issued by NWS San Angelo, TX

Home | Current Version | Previous Version | Text Only | Print | Product List | Glossary On
Versions: 1 2 3 4 5 6 7 8 9 10 11 12 13 14 15 16 17 18 19 20 21
000
FTUS44 KSJT 271700 AAD
TAFABI
TAF AMD
KABI 271709Z 2717/2812 36011KT P6SM OVC006
     FM271800 01011KT P6SM BKN035
     FM272000 01011KT P6SM SCT030 BKN070=

USA.gov is the U.S. government's official web portal to all federal, state and local government web resources and services.